createdAt,value
2019-01-16T00:02:29.335Z,98689.94
2019-01-16T00:05:21.406Z,98689.75
2019-01-16T00:08:10.924Z,98693.60
2019-01-16T00:10:57.221Z,98691.38
2019-01-16T00:13:36.458Z,98685.50
2019-01-16T00:16:27.075Z,98683.75
2019-01-16T00:19:14.913Z,98683.86
2019-01-16T00:22:05.582Z,98690.02
2019-01-16T00:24:49.266Z,98678.28
2019-01-16T00:27:41.113Z,98677.89
2019-01-16T00:30:28.750Z,98675.09
2019-01-16T00:33:03.814Z,98671.48
2019-01-16T00:35:50.479Z,98673.63
2019-01-16T00:38:37.181Z,98667.02
2019-01-16T00:41:23.599Z,98658.73
2019-01-16T00:44:09.699Z,98652.92
2019-01-16T00:46:56.063Z,98652.27
2019-01-16T00:49:49.813Z,98647.11
2019-01-16T00:52:31.462Z,98648.60
2019-01-16T00:55:18.797Z,98649.30
2019-01-16T00:58:13.217Z,98648.52
2019-01-16T01:00:48.535Z,98642.08
2019-01-16T01:03:43.638Z,98636.42
2019-01-16T01:06:34.565Z,98638.55
2019-01-16T01:09:10.440Z,98641.47
2019-01-16T01:11:56.961Z,98644.73
2019-01-16T01:14:50.498Z,98646.76
2019-01-16T01:17:33.103Z,98642.77
2019-01-16T01:20:21.426Z,98637.41
2019-01-16T01:23:05.095Z,98638.44
2019-01-16T01:25:50.271Z,98639.52
2019-01-16T01:28:42.513Z,98636.69
2019-01-16T01:31:39.329Z,98636.81
2019-01-16T01:34:26.969Z,98637.30
2019-01-16T01:37:13.317Z,98639.53
2019-01-16T01:40:05.381Z,98638.31
2019-01-16T01:42:52.641Z,98642.64
2019-01-16T01:45:49.083Z,98635.42
2019-01-16T01:48:40.126Z,98641.05
2019-01-16T01:51:26.156Z,98638.80
2019-01-16T01:54:19.922Z,98642.23
2019-01-16T01:57:08.300Z,98640.75
2019-01-16T02:00:04.820Z,98639.53
2019-01-16T02:03:11.850Z,98638.53
2019-01-16T02:05:54.314Z,98634.95
2019-01-16T02:08:41.479Z,98638.12
2019-01-16T02:11:31.892Z,98631.96
2019-01-16T02:14:19.476Z,98624.19
2019-01-16T02:17:04.675Z,98632.02
2019-01-16T02:19:53.277Z,98629.71
2019-01-16T02:22:40.631Z,98619.81
2019-01-16T02:25:22.078Z,98610.16
2019-01-16T02:28:02.990Z,98613.48
2019-01-16T02:30:41.811Z,98605.83
2019-01-16T02:33:27.928Z,98600.09
2019-01-16T02:36:18.015Z,98602.67
2019-01-16T02:39:07.251Z,98602.28
2019-01-16T02:41:58.990Z,98599.81
2019-01-16T02:45:00.899Z,98593.38
2019-01-16T02:47:49.118Z,98595.73
2019-01-16T02:50:40.164Z,98593.09
2019-01-16T02:53:30.864Z,98583.86
2019-01-16T02:56:21.974Z,98585.23
2019-01-16T02:59:15.007Z,98565.64
2019-01-16T03:02:01.722Z,98568.88
2019-01-16T03:04:52.240Z,98563.09
2019-01-16T03:07:42.059Z,98562.44
2019-01-16T03:10:39.285Z,98569.31
2019-01-16T03:13:28.087Z,98558.24
2019-01-16T03:16:14.632Z,98558.14
2019-01-16T03:19:04.727Z,98554.52
2019-01-16T03:21:52.804Z,98554.67
2019-01-16T03:24:46.580Z,98555.28
2019-01-16T03:27:34.059Z,98550.50
2019-01-16T03:30:21.133Z,98552.00
2019-01-16T03:33:24.048Z,98549.85
2019-01-16T03:36:09.015Z,98542.63
2019-01-16T03:38:57.602Z,98543.27
2019-01-16T03:41:44.308Z,98536.94
2019-01-16T03:44:44.268Z,98530.94
2019-01-16T03:47:45.279Z,98537.39
2019-01-16T03:50:31.817Z,98529.88
2019-01-16T03:53:19.320Z,98518.02
2019-01-16T03:55:58.649Z,98521.78
2019-01-16T03:58:44.819Z,98519.09
2019-01-16T04:01:31.956Z,98509.36
2019-01-16T04:04:37.958Z,98504.31
2019-01-16T04:07:28.540Z,98506.41
2019-01-16T04:10:25.713Z,98504.23
2019-01-16T04:13:17.390Z,98496.44
2019-01-16T04:16:20.471Z,98496.18
2019-01-16T04:19:08.292Z,98496.42
2019-01-16T04:22:03.272Z,98493.02
2019-01-16T04:24:43.945Z,98485.31
2019-01-16T04:27:23.743Z,98484.87
2019-01-16T04:30:09.455Z,98488.56
2019-01-16T04:32:56.029Z,98482.33
2019-01-16T04:35:44.546Z,98483.59
2019-01-16T04:38:31.301Z,98483.66
2019-01-16T04:41:18.335Z,98478.63
2019-01-16T04:44:14.351Z,98476.47
2019-01-16T04:47:08.497Z,98476.55
2019-01-16T04:50:05.292Z,98458.61
2019-01-16T04:53:11.391Z,98462.74
2019-01-16T04:56:14.399Z,98460.81
2019-01-16T04:59:11.010Z,98461.20
2019-01-16T05:02:04.685Z,98458.80
2019-01-16T05:05:01.695Z,98459.11
2019-01-16T05:07:58.350Z,98458.92
2019-01-16T05:10:40.315Z,98453.45
2019-01-16T05:13:33.758Z,98453.83
2019-01-16T05:16:09.729Z,98453.83
2019-01-16T05:19:05.560Z,98447.46
2019-01-16T05:21:43.676Z,98443.83
2019-01-16T05:24:37.662Z,98434.43
2019-01-16T05:27:24.409Z,98437.66
2019-01-16T05:30:21.036Z,98427.97
2019-01-16T05:33:07.315Z,98422.89
2019-01-16T05:35:47.782Z,98419.31
2019-01-16T05:38:35.758Z,98414.03
2019-01-16T05:41:23.401Z,98405.59
2019-01-16T05:44:12.246Z,98396.42
2019-01-16T05:47:08.727Z,98410.27
2019-01-16T05:50:00.253Z,98419.16
2019-01-16T05:52:38.987Z,98432.71
2019-01-16T05:55:20.102Z,98420.37
2019-01-16T05:58:06.479Z,98422.17
2019-01-16T06:00:47.265Z,98413.91
2019-01-16T06:03:41.415Z,98410.69
2019-01-16T06:06:28.359Z,98408.66
2019-01-16T06:09:18.955Z,98416.02
2019-01-16T06:12:06.957Z,98420.02
2019-01-16T06:14:52.051Z,98414.67
2019-01-16T06:17:39.655Z,98414.08
2019-01-16T06:20:28.824Z,98411.97
2019-01-16T06:23:12.846Z,98415.87
2019-01-16T06:26:12.512Z,98404.78
2019-01-16T06:29:15.492Z,98410.55
2019-01-16T06:31:55.914Z,98411.97
2019-01-16T06:34:46.316Z,98404.39
2019-01-16T06:37:33.882Z,98399.87
2019-01-16T06:40:20.431Z,98402.20
2019-01-16T06:43:07.347Z,98395.84
2019-01-16T06:45:53.521Z,98398.36
2019-01-16T06:48:44.465Z,98397.05
2019-01-16T06:51:38.419Z,98398.80
2019-01-16T06:54:28.513Z,98393.28
2019-01-16T06:57:14.813Z,98389.98
2019-01-16T06:59:50.784Z,98390.54
2019-01-16T07:02:37.547Z,98388.20
2019-01-16T07:05:21.528Z,98380.66
2019-01-16T07:08:07.582Z,98371.05
2019-01-16T07:10:54.609Z,98368.20
2019-01-16T07:13:45.085Z,98372.60
2019-01-16T07:16:31.382Z,98369.50
2019-01-16T07:19:21.438Z,98371.25
2019-01-16T07:22:21.860Z,98370.61
2019-01-16T07:25:21.404Z,98375.97
2019-01-16T07:28:11.813Z,98375.86
2019-01-16T07:30:58.096Z,98368.63
2019-01-16T07:33:45.785Z,98363.63
2019-01-16T07:36:45.475Z,98362.28
2019-01-16T07:39:39.213Z,98361.88
2019-01-16T07:42:37.406Z,98357.36
2019-01-16T07:45:34.582Z,98359.70
2019-01-16T07:48:37.339Z,98356.05
2019-01-16T07:51:34.329Z,98345.89
2019-01-16T07:54:28.000Z,98343.55
2019-01-16T07:57:04.776Z,98333.52
2019-01-16T08:00:04.591Z,98340.33
2019-01-16T08:02:51.464Z,98336.05
2019-01-16T08:05:37.730Z,98340.69
2019-01-16T08:08:24.209Z,98337.98
2019-01-16T08:11:15.588Z,98345.13
2019-01-16T08:14:04.176Z,98343.50
2019-01-16T08:16:57.647Z,98348.74
2019-01-16T08:19:51.283Z,98346.92
2019-01-16T08:22:48.143Z,98342.27
2019-01-16T08:25:38.958Z,98344.02
2019-01-16T08:28:29.805Z,98341.71
2019-01-16T08:31:16.604Z,98342.34
2019-01-16T08:34:03.526Z,98335.59
2019-01-16T08:36:54.944Z,98334.99
2019-01-16T08:39:46.353Z,98334.75
2019-01-16T08:42:46.252Z,98326.31
2019-01-16T08:45:50.081Z,98333.95
2019-01-16T08:48:40.781Z,98321.90
2019-01-16T08:51:27.021Z,98325.85
2019-01-16T08:54:26.507Z,98321.00
2019-01-16T08:57:29.201Z,98319.94
2019-01-16T09:00:18.944Z,98320.30
2019-01-16T09:02:57.751Z,98315.03
2019-01-16T09:05:48.147Z,98317.27
2019-01-16T09:08:34.293Z,98318.84
2019-01-16T09:11:30.954Z,98318.22
2019-01-16T09:14:12.745Z,98320.82
2019-01-16T09:17:00.310Z,98324.45
2019-01-16T09:19:46.516Z,98316.26
2019-01-16T09:22:40.505Z,98309.95
2019-01-16T09:25:34.250Z,98307.13
2019-01-16T09:28:20.387Z,98302.30
2019-01-16T09:31:07.972Z,98297.14
2019-01-16T09:33:54.162Z,98291.81
2019-01-16T09:36:44.489Z,98287.22
2019-01-16T09:39:32.932Z,98284.96
2019-01-16T09:42:20.658Z,98286.84
2019-01-16T09:45:06.651Z,98285.55
2019-01-16T09:48:06.550Z,98280.09
2019-01-16T09:50:54.124Z,98284.22
2019-01-16T09:53:40.552Z,98277.55
2019-01-16T09:56:28.233Z,98272.16
2019-01-16T09:59:24.572Z,98268.26
2019-01-16T10:02:30.410Z,98257.23
2019-01-16T10:05:16.447Z,98259.03
2019-01-16T10:08:02.004Z,98247.40
2019-01-16T10:10:43.080Z,98241.98
2019-01-16T10:13:40.135Z,98236.98
2019-01-16T10:16:36.787Z,98228.27
2019-01-16T10:19:22.564Z,98234.70
2019-01-16T10:22:14.510Z,98228.61
2019-01-16T10:25:02.156Z,98224.95
2019-01-16T10:27:49.384Z,98218.61
2019-01-16T10:30:37.336Z,98204.91
2019-01-16T10:33:23.776Z,98206.45
2019-01-16T10:36:10.248Z,98211.22
2019-01-16T10:39:04.042Z,98208.82
2019-01-16T10:41:50.681Z,98201.77
2019-01-16T10:44:34.243Z,98197.63
2019-01-16T10:47:22.560Z,98192.83
2019-01-16T10:50:09.435Z,98178.22
2019-01-16T10:52:57.074Z,98176.42
2019-01-16T10:55:45.312Z,98181.13
2019-01-16T10:58:33.219Z,98179.22
2019-01-16T11:01:12.312Z,98175.75
2019-01-16T11:03:59.911Z,98169.52
2019-01-16T11:06:46.277Z,98168.58
2019-01-16T11:09:32.714Z,98160.38
2019-01-16T11:12:29.566Z,98149.86
2019-01-16T11:15:16.203Z,98153.33
2019-01-16T11:18:19.464Z,98143.05
2019-01-16T11:21:10.998Z,98135.45
2019-01-16T11:23:58.413Z,98130.53
2019-01-16T11:27:04.515Z,98122.93
2019-01-16T11:30:11.353Z,98123.18
2019-01-16T11:33:02.124Z,98123.19
2019-01-16T11:35:48.455Z,98113.65
2019-01-16T11:38:36.305Z,98110.81
2019-01-16T11:41:26.660Z,98106.52
2019-01-16T11:44:17.060Z,98101.49
2019-01-16T11:47:04.039Z,98101.95
2019-01-16T11:49:47.955Z,98093.00
2019-01-16T11:52:50.665Z,98090.63
2019-01-16T11:55:37.886Z,98085.19
2019-01-16T11:58:25.487Z,98082.75
2019-01-16T12:01:10.230Z,98078.84
2019-01-16T12:04:09.895Z,98070.10
2019-01-16T12:07:09.760Z,98065.83
2019-01-16T12:10:12.967Z,98056.91
2019-01-16T12:13:03.476Z,98055.30
2019-01-16T12:15:56.913Z,98042.73
2019-01-16T12:18:34.528Z,98029.86
2019-01-16T12:21:40.222Z,98023.11
2019-01-16T12:24:19.498Z,98015.12
2019-01-16T12:27:06.046Z,98012.23
2019-01-16T12:30:02.995Z,98012.37
2019-01-16T12:32:51.960Z,98005.37
2019-01-16T12:35:45.606Z,97999.76
2019-01-16T12:38:24.344Z,97998.84
2019-01-16T12:41:11.941Z,97986.99
2019-01-16T12:44:03.230Z,97982.98
2019-01-16T12:46:59.565Z,97977.71
2019-01-16T12:49:45.529Z,97980.66
2019-01-16T12:52:33.258Z,97978.39
2019-01-16T12:55:19.752Z,97965.69
2019-01-16T12:58:13.396Z,97958.78
2019-01-16T13:00:56.754Z,97956.20
2019-01-16T13:03:45.636Z,97962.94
2019-01-16T13:06:31.951Z,97952.19
2019-01-16T13:09:19.919Z,97945.22
2019-01-16T13:12:11.951Z,97942.73
2019-01-16T13:14:58.275Z,97941.80
2019-01-16T13:17:48.955Z,97933.97
2019-01-16T13:20:37.960Z,97933.28
2019-01-16T13:23:35.273Z,97933.28
2019-01-16T13:26:21.861Z,97925.33
2019-01-16T13:29:09.919Z,97925.55
2019-01-16T13:32:00.572Z,97923.56
2019-01-16T13:35:01.051Z,97920.03
2019-01-16T13:37:48.804Z,97908.93
2019-01-16T13:40:55.352Z,97905.90
2019-01-16T13:43:43.034Z,97904.44
2019-01-16T13:46:30.634Z,97901.60
2019-01-16T13:49:07.236Z,97901.11
2019-01-16T13:51:46.420Z,97895.98
2019-01-16T13:54:42.442Z,97897.48
2019-01-16T13:57:28.855Z,97888.13
2019-01-16T14:00:12.061Z,97887.53
2019-01-16T14:02:46.615Z,97889.31
2019-01-16T14:05:43.522Z,97878.34
2019-01-16T14:08:22.813Z,97872.61
2019-01-16T14:11:22.721Z,97875.02
2019-01-16T14:14:10.569Z,97868.20
2019-01-16T14:17:16.610Z,97869.47
2019-01-16T14:20:04.281Z,97863.61
2019-01-16T14:22:44.068Z,97864.56
2019-01-16T14:25:33.868Z,97853.10
2019-01-16T14:28:21.765Z,97857.95
2019-01-16T14:31:08.136Z,97845.18
2019-01-16T14:33:55.707Z,97846.45
2019-01-16T14:36:52.470Z,97841.52
2019-01-16T14:39:32.376Z,97837.80
2019-01-16T14:42:21.350Z,97835.63
2019-01-16T14:45:12.150Z,97826.19
2019-01-16T14:48:09.218Z,97811.04
2019-01-16T14:50:51.742Z,97810.91
2019-01-16T14:53:35.978Z,97813.04
2019-01-16T14:56:23.012Z,97810.74
2019-01-16T14:59:06.486Z,97811.88
2019-01-16T15:01:50.034Z,97807.98
2019-01-16T15:04:33.720Z,97808.40
2019-01-16T15:07:11.185Z,97814.66
2019-01-16T15:09:52.688Z,97804.47
2019-01-16T15:12:40.313Z,97804.53
2019-01-16T15:15:21.357Z,97805.87
2019-01-16T15:18:21.713Z,97802.70
2019-01-16T15:21:12.349Z,97803.77
2019-01-16T15:24:00.359Z,97809.74
2019-01-16T15:26:46.600Z,97799.94
2019-01-16T15:29:28.689Z,97796.97
2019-01-16T15:32:34.742Z,97798.45
2019-01-16T15:35:21.158Z,97795.20
2019-01-16T15:38:09.880Z,97789.80
2019-01-16T15:40:56.588Z,97783.73
2019-01-16T15:43:58.267Z,97788.27
2019-01-16T15:46:44.435Z,97781.45
2019-01-16T15:49:38.203Z,97779.99
2019-01-16T15:52:16.059Z,97783.32
2019-01-16T15:54:58.636Z,97776.59
2019-01-16T15:57:58.710Z,97773.41
2019-01-16T16:00:44.288Z,97765.84
2019-01-16T16:03:27.377Z,97768.83
2019-01-16T16:06:15.131Z,97767.16
2019-01-16T16:09:12.071Z,97750.64
2019-01-16T16:11:58.380Z,97757.20
2019-01-16T16:14:44.856Z,97758.76
2019-01-16T16:17:30.413Z,97753.56
2019-01-16T16:20:21.350Z,97752.03
2019-01-16T16:23:01.898Z,97747.77
2019-01-16T16:25:58.855Z,97744.27
2019-01-16T16:28:45.340Z,97745.29
2019-01-16T16:31:38.973Z,97747.37
2019-01-16T16:34:30.219Z,97750.61
2019-01-16T16:37:10.067Z,97746.78
2019-01-16T16:40:12.819Z,97747.33
2019-01-16T16:42:58.697Z,97744.31
2019-01-16T16:45:47.195Z,97743.30
2019-01-16T16:48:33.880Z,97739.56
2019-01-16T16:51:39.617Z,97744.09
2019-01-16T16:54:29.940Z,97734.13
2019-01-16T16:57:11.616Z,97732.20
2019-01-16T17:00:17.942Z,97728.07
2019-01-16T17:03:11.686Z,97722.25
2019-01-16T17:06:01.182Z,97715.80
2019-01-16T17:08:47.582Z,97715.63
2019-01-16T17:11:30.603Z,97715.69
2019-01-16T17:14:18.129Z,97712.59
2019-01-16T17:17:04.858Z,97715.98
2019-01-16T17:19:56.236Z,97716.14
2019-01-16T17:22:37.342Z,97719.25
2019-01-16T17:25:21.799Z,97712.69
2019-01-16T17:28:10.449Z,97715.00
2019-01-16T17:30:54.471Z,97713.53
2019-01-16T17:33:40.066Z,97706.89
2019-01-16T17:36:27.782Z,97701.78
2019-01-16T17:39:14.247Z,97696.56
2019-01-16T17:42:07.680Z,97706.06
2019-01-16T17:45:10.570Z,97698.77
2019-01-16T17:48:01.421Z,97697.06
2019-01-16T17:50:42.836Z,97685.38
2019-01-16T17:53:23.817Z,97679.38
2019-01-16T17:56:14.524Z,97678.73
2019-01-16T17:59:00.898Z,97674.08
2019-01-16T18:02:00.144Z,97671.80
2019-01-16T18:04:47.704Z,97665.34
2019-01-16T18:07:43.379Z,97663.09
2019-01-16T18:10:37.639Z,97664.19
2019-01-16T18:13:31.307Z,97663.00
2019-01-16T18:16:21.597Z,97664.91
2019-01-16T18:19:09.331Z,97665.74
2019-01-16T18:21:47.786Z,97671.94
2019-01-16T18:24:35.337Z,97669.94
2019-01-16T18:27:21.898Z,97668.93
2019-01-16T18:30:14.228Z,97662.92
2019-01-16T18:33:02.889Z,97656.73
2019-01-16T18:35:50.282Z,97654.71
2019-01-16T18:38:36.915Z,97659.84
2019-01-16T18:41:27.920Z,97657.11
2019-01-16T18:44:04.689Z,97661.28
2019-01-16T18:46:49.322Z,97662.55
2019-01-16T18:49:27.666Z,97657.83
2019-01-16T18:52:14.084Z,97660.67
2019-01-16T18:54:55.798Z,97662.77
2019-01-16T18:57:35.168Z,97656.28
2019-01-16T19:00:33.317Z,97659.66
2019-01-16T19:03:19.948Z,97658.48
2019-01-16T19:06:06.531Z,97658.72
2019-01-16T19:09:06.548Z,97655.69
2019-01-16T19:12:06.633Z,97658.40
2019-01-16T19:14:57.021Z,97649.33
2019-01-16T19:17:37.783Z,97644.87
2019-01-16T19:20:37.449Z,97649.23
2019-01-16T19:23:17.910Z,97646.50
2019-01-16T19:26:04.129Z,97645.16
2019-01-16T19:28:54.520Z,97638.77
2019-01-16T19:31:36.381Z,97634.50
2019-01-16T19:34:30.330Z,97630.66
2019-01-16T19:37:36.040Z,97627.92
2019-01-16T19:40:29.350Z,97622.48
2019-01-16T19:43:29.568Z,97622.30
2019-01-16T19:46:16.930Z,97624.88
2019-01-16T19:49:19.650Z,97624.58
2019-01-16T19:52:00.904Z,97628.85
2019-01-16T19:55:00.817Z,97631.97
2019-01-16T19:57:42.211Z,97636.97
2019-01-16T20:00:53.301Z,97633.77
2019-01-16T20:03:39.791Z,97643.27
2019-01-16T20:06:18.384Z,97628.67
2019-01-16T20:09:11.646Z,97622.11
2019-01-16T20:11:48.927Z,97622.56
2019-01-16T20:14:39.680Z,97614.46
2019-01-16T20:17:33.523Z,97614.76
2019-01-16T20:20:30.258Z,97613.94
2019-01-16T20:23:16.468Z,97609.02
2019-01-16T20:25:59.127Z,97606.28
2019-01-16T20:28:45.806Z,97614.91
2019-01-16T20:31:45.035Z,97611.71
2019-01-16T20:34:31.271Z,97610.61
2019-01-16T20:37:21.901Z,97607.36
2019-01-16T20:40:17.414Z,97605.33
2019-01-16T20:43:23.420Z,97599.60
2019-01-16T20:46:23.135Z,97599.86
2019-01-16T20:49:13.605Z,97600.48
2019-01-16T20:52:04.556Z,97596.91
2019-01-16T20:55:01.080Z,97602.49
2019-01-16T20:57:57.803Z,97588.45
2019-01-16T21:00:49.109Z,97601.21
2019-01-16T21:03:45.515Z,97591.98
2019-01-16T21:06:32.701Z,97586.88
2019-01-16T21:09:23.039Z,97588.36
2019-01-16T21:12:19.606Z,97586.70
2019-01-16T21:14:55.319Z,97586.01
2019-01-16T21:17:36.635Z,97590.83
2019-01-16T21:20:26.002Z,97588.16
2019-01-16T21:23:26.260Z,97592.19
2019-01-16T21:26:12.637Z,97584.25
2019-01-16T21:28:59.137Z,97587.83
2019-01-16T21:31:36.787Z,97587.98
2019-01-16T21:34:27.106Z,97586.55
2019-01-16T21:37:20.984Z,97585.44
2019-01-16T21:40:07.539Z,97586.37
2019-01-16T21:43:10.670Z,97574.70
2019-01-16T21:46:04.520Z,97587.34
2019-01-16T21:48:50.847Z,97582.70
2019-01-16T21:51:38.406Z,97582.25
2019-01-16T21:54:19.249Z,97587.47
2019-01-16T21:57:13.275Z,97577.31
2019-01-16T22:00:01.004Z,97583.98
2019-01-16T22:02:48.822Z,97587.47
2019-01-16T22:05:36.419Z,97589.08
2019-01-16T22:08:22.868Z,97588.91
2019-01-16T22:11:09.827Z,97594.48
2019-01-16T22:13:56.901Z,97587.38
2019-01-16T22:16:41.929Z,97586.70
2019-01-16T22:19:28.000Z,97595.20
2019-01-16T22:22:15.535Z,97586.83
2019-01-16T22:25:02.104Z,97588.94
2019-01-16T22:27:51.067Z,97577.73
2019-01-16T22:30:47.428Z,97590.78
2019-01-16T22:33:33.907Z,97585.67
2019-01-16T22:36:24.393Z,97584.94
2019-01-16T22:39:04.499Z,97582.56
2019-01-16T22:41:59.503Z,97588.57
2019-01-16T22:44:53.027Z,97578.22
2019-01-16T22:47:40.217Z,97582.77
2019-01-16T22:50:27.950Z,97585.32
2019-01-16T22:53:14.474Z,97575.05
2019-01-16T22:56:03.464Z,97578.88
2019-01-16T22:58:57.259Z,97577.52
2019-01-16T23:01:44.889Z,97578.69
2019-01-16T23:04:31.292Z,97571.15
2019-01-16T23:07:16.536Z,97565.86
2019-01-16T23:10:07.780Z,97556.86
2019-01-16T23:12:53.590Z,97567.85
2019-01-16T23:15:32.629Z,97565.48
2019-01-16T23:18:32.244Z,97565.04
2019-01-16T23:21:18.469Z,97561.66
2019-01-16T23:24:18.258Z,97558.30
2019-01-16T23:27:20.938Z,97553.94
2019-01-16T23:30:08.645Z,97552.48
2019-01-16T23:32:56.112Z,97558.77
2019-01-16T23:35:42.701Z,97557.69
2019-01-16T23:38:33.313Z,97556.75
2019-01-16T23:41:19.938Z,97553.67
2019-01-16T23:44:13.921Z,97551.20
2019-01-16T23:47:04.705Z,97555.84
2019-01-16T23:49:51.430Z,97551.49
2019-01-16T23:52:36.513Z,97550.73
2019-01-16T23:55:29.085Z,97558.20
2019-01-16T23:58:16.966Z,97559.22
